createdAt,value
2022-10-31T00:00:31.046Z,96299.87
2022-10-31T00:05:58.781Z,96299.16
2022-10-31T00:11:35.330Z,96301.56
2022-10-31T00:14:23.349Z,96301.77
2022-10-31T00:17:11.539Z,96298.55
2022-10-31T00:22:50.767Z,96295.34
2022-10-31T00:25:41.892Z,96298.98
2022-10-31T00:31:17.775Z,96294.91
2022-10-31T00:34:08.858Z,96291.23
2022-10-31T00:39:49.441Z,96289.41
2022-10-31T00:42:37.994Z,96292.09
2022-10-31T00:48:17.471Z,96286.58
2022-10-31T00:53:47.599Z,96292.02
2022-10-31T00:56:36.434Z,96289.49
2022-10-31T01:02:06.415Z,96286.44
2022-10-31T01:04:57.805Z,96282.23
2022-10-31T01:07:46.886Z,96281.44
2022-10-31T01:13:16.349Z,96277.64
2022-10-31T01:16:07.130Z,96278.12
2022-10-31T01:21:42.123Z,96278.15
2022-10-31T01:27:17.729Z,96275.48
2022-10-31T01:30:09.297Z,96269.98
2022-10-31T01:35:44.958Z,96270.06
2022-10-31T01:38:33.381Z,96269.58
2022-10-31T01:41:26.677Z,96268.45
2022-10-31T01:44:50.499Z,96263.26
2022-10-31T01:50:33.662Z,96266.02
2022-10-31T01:53:25.960Z,96265.27
2022-10-31T01:58:56.054Z,96267.31
2022-10-31T02:01:44.090Z,96266.19
2022-10-31T02:07:22.586Z,96259.05
2022-10-31T02:12:56.273Z,96260.33
2022-10-31T02:18:31.473Z,96256.98
2022-10-31T02:24:33.656Z,96241.93
2022-10-31T02:30:24.492Z,96241.18
2022-10-31T02:35:59.864Z,96249.66
2022-10-31T02:41:43.151Z,96243.90
2022-10-31T02:44:34.331Z,96244.09
2022-10-31T02:50:08.521Z,96246.02
2022-10-31T02:55:58.592Z,96248.17
2022-10-31T03:05:00.197Z,96235.52
2022-10-31T03:07:54.661Z,96238.38
2022-10-31T03:16:21.250Z,96234.84
2022-10-31T03:21:59.760Z,96226.11
2022-10-31T03:27:39.299Z,96233.73
2022-10-31T03:33:10.589Z,96228.30
2022-10-31T03:38:46.233Z,96230.63
2022-10-31T03:44:26.785Z,96226.02
2022-10-31T03:49:54.225Z,96211.53
2022-10-31T03:55:47.245Z,96210.12
2022-10-31T04:01:22.854Z,96222.43
2022-10-31T04:04:11.680Z,96217.42
2022-10-31T04:07:01.941Z,96220.59
2022-10-31T04:12:41.070Z,96211.28
2022-10-31T04:15:30.910Z,96219.08
2022-10-31T04:21:06.778Z,96205.69
2022-10-31T04:23:54.879Z,96211.20
2022-10-31T04:26:44.188Z,96219.73
2022-10-31T04:32:19.931Z,96217.27
2022-10-31T04:40:43.374Z,96206.98
2022-10-31T04:43:32.724Z,96202.74
2022-10-31T04:49:06.218Z,96200.44
2022-10-31T04:51:55.673Z,96200.73
2022-10-31T04:54:44.065Z,96198.02
2022-10-31T05:00:31.715Z,96190.19
2022-10-31T05:03:20.002Z,96191.47
2022-10-31T05:06:08.657Z,96184.30
2022-10-31T05:11:44.971Z,96188.43
2022-10-31T05:14:34.087Z,96183.23
2022-10-31T05:17:21.883Z,96181.95
2022-10-31T05:22:55.242Z,96183.89
2022-10-31T05:31:14.948Z,96175.66
2022-10-31T05:37:05.595Z,96173.89
2022-10-31T05:39:54.849Z,96165.61
2022-10-31T05:45:27.265Z,96160.44
2022-10-31T05:51:03.247Z,96163.25
2022-10-31T05:53:51.529Z,96161.66
2022-10-31T05:57:01.314Z,96159.92
2022-10-31T05:59:54.767Z,96163.03
2022-10-31T06:05:20.170Z,96159.53
2022-10-31T06:08:09.144Z,96159.45
2022-10-31T06:13:44.909Z,96169.28
2022-10-31T06:19:15.894Z,96161.63
2022-10-31T06:22:04.236Z,96175.41
2022-10-31T06:27:34.816Z,96164.12
2022-10-31T06:33:11.773Z,96168.75
2022-10-31T06:41:32.528Z,96162.14
2022-10-31T06:44:20.919Z,96156.86
2022-10-31T06:49:59.485Z,96174.58
2022-10-31T06:55:53.428Z,96177.30
2022-10-31T07:01:21.990Z,96175.56
2022-10-31T07:06:53.956Z,96184.57
2022-10-31T07:09:41.931Z,96189.36
2022-10-31T07:15:18.189Z,96193.06
2022-10-31T07:20:55.496Z,96189.53
2022-10-31T07:23:44.526Z,96190.79
2022-10-31T07:29:16.957Z,96199.67
2022-10-31T07:34:48.202Z,96197.72
2022-10-31T07:43:20.723Z,96193.53
2022-10-31T07:48:55.006Z,96197.84
2022-10-31T07:54:25.008Z,96190.06
2022-10-31T08:00:01.571Z,96197.67
2022-10-31T08:05:38.298Z,96201.53
2022-10-31T08:11:14.663Z,96206.78
2022-10-31T08:16:46.303Z,96196.16
2022-10-31T08:22:16.999Z,96194.34
2022-10-31T08:27:45.856Z,96199.70
2022-10-31T08:33:15.933Z,96194.33
2022-10-31T08:39:01.992Z,96196.16
2022-10-31T08:44:33.438Z,96196.83
2022-10-31T08:50:11.025Z,96187.06
2022-10-31T08:55:42.342Z,96176.28
2022-10-31T09:01:10.423Z,96188.09
2022-10-31T09:03:59.457Z,96193.31
2022-10-31T09:12:25.535Z,96195.00
2022-10-31T09:15:14.204Z,96191.81
2022-10-31T09:18:03.281Z,96190.43
2022-10-31T09:20:52.354Z,96190.77
2022-10-31T09:26:21.862Z,96179.42
2022-10-31T09:29:10.935Z,96178.25
2022-10-31T09:34:47.191Z,96161.35
2022-10-31T09:40:19.620Z,96167.55
2022-10-31T09:46:02.334Z,96151.70
2022-10-31T09:51:53.322Z,96160.31
2022-10-31T09:57:37.501Z,96160.29
2022-10-31T10:03:11.646Z,96160.14
2022-10-31T10:08:40.707Z,96153.39
2022-10-31T10:14:34.092Z,96139.09
2022-10-31T10:23:37.302Z,96150.12
2022-10-31T10:29:21.487Z,96152.06
2022-10-31T10:32:12.766Z,96148.19
2022-10-31T10:37:44.445Z,96138.31
2022-10-31T10:40:35.999Z,96140.75
2022-10-31T10:49:21.674Z,96127.30
2022-10-31T10:55:04.260Z,96137.39
2022-10-31T10:58:00.729Z,96124.29
2022-10-31T11:03:36.816Z,96128.61
2022-10-31T11:06:27.053Z,96134.88
2022-10-31T11:12:10.426Z,96128.89
2022-10-31T11:17:54.515Z,96128.69
2022-10-31T11:20:42.656Z,96126.24
2022-10-31T11:26:23.564Z,96114.69
2022-10-31T11:32:05.241Z,96098.83
2022-10-31T11:37:46.647Z,96098.04
2022-10-31T11:43:18.049Z,96106.77
2022-10-31T11:48:55.769Z,96084.73
2022-10-31T11:54:29.945Z,96077.98
2022-10-31T11:57:39.879Z,96081.55
2022-10-31T12:03:52.504Z,96059.11
2022-10-31T12:09:31.552Z,96051.48
2022-10-31T12:18:55.360Z,96035.94
2022-10-31T12:25:20.666Z,96032.05
2022-10-31T12:31:44.054Z,96021.09
2022-10-31T12:37:53.525Z,96011.88
2022-10-31T12:40:53.631Z,96008.25
2022-10-31T12:43:47.252Z,95999.53
2022-10-31T12:49:43.274Z,95979.94
2022-10-31T12:55:49.173Z,95973.49
2022-10-31T13:01:26.566Z,95956.28
2022-10-31T13:07:10.847Z,95948.95
2022-10-31T13:13:00.545Z,95941.05
2022-10-31T13:18:33.164Z,95941.85
2022-10-31T13:27:01.173Z,95930.68
2022-10-31T13:32:44.877Z,95918.83
2022-10-31T13:38:30.632Z,95916.57
2022-10-31T13:44:12.922Z,95899.06
2022-10-31T13:49:48.995Z,95886.63
2022-10-31T13:52:38.989Z,95884.77
2022-10-31T13:55:42.053Z,95883.67
2022-10-31T13:58:31.696Z,95888.59
2022-10-31T14:01:23.132Z,95890.12
2022-10-31T14:07:14.893Z,95882.27
2022-10-31T14:12:55.913Z,95883.08
2022-10-31T14:15:47.764Z,95888.45
2022-10-31T14:18:38.532Z,95883.61
2022-10-31T14:21:32.518Z,95874.22
2022-10-31T14:24:35.419Z,95864.09
2022-10-31T14:30:40.377Z,95845.00
2022-10-31T14:33:29.602Z,95845.03
2022-10-31T14:39:08.803Z,95843.56
2022-10-31T14:45:10.690Z,95843.88
2022-10-31T14:51:00.617Z,95839.91
2022-10-31T14:56:34.311Z,95843.56
2022-10-31T15:05:23.246Z,95833.26
2022-10-31T15:08:18.598Z,95833.36
2022-10-31T15:11:15.824Z,95824.41
2022-10-31T15:16:48.595Z,95825.99
2022-10-31T15:19:47.047Z,95816.50
2022-10-31T15:22:36.074Z,95819.70
2022-10-31T15:28:23.510Z,95820.61
2022-10-31T15:34:08.226Z,95814.05
2022-10-31T15:42:26.734Z,95809.46
2022-10-31T15:45:24.644Z,95807.12
2022-10-31T15:51:16.301Z,95803.23
2022-10-31T15:56:46.691Z,95809.23
2022-10-31T16:02:20.275Z,95798.77
2022-10-31T16:05:20.608Z,95796.19
2022-10-31T16:08:26.537Z,95789.19
2022-10-31T16:11:22.336Z,95791.36
2022-10-31T16:14:23.209Z,95801.22
2022-10-31T16:17:13.081Z,95800.98
2022-10-31T16:22:51.762Z,95796.81
2022-10-31T16:25:41.288Z,95795.09
2022-10-31T16:28:33.070Z,95803.77
2022-10-31T16:37:01.616Z,95804.47
2022-10-31T16:42:33.706Z,95803.27
2022-10-31T16:45:24.574Z,95804.66
2022-10-31T16:53:52.347Z,95810.08
2022-10-31T16:59:23.183Z,95808.23
2022-10-31T17:05:11.795Z,95816.64
2022-10-31T17:10:46.689Z,95824.60
2022-10-31T17:16:17.732Z,95826.71
2022-10-31T17:22:04.416Z,95817.42
2022-10-31T17:27:33.563Z,95829.23
2022-10-31T17:35:56.745Z,95849.77
2022-10-31T17:41:34.346Z,95840.84
2022-10-31T17:47:09.781Z,95856.09
2022-10-31T17:52:36.543Z,95860.42
2022-10-31T17:58:08.096Z,95870.66
2022-10-31T18:03:45.046Z,95876.38
2022-10-31T18:14:53.073Z,95885.86
2022-10-31T18:20:29.565Z,95893.13
2022-10-31T18:26:06.256Z,95908.35
2022-10-31T18:40:04.102Z,95917.33
2022-10-31T18:45:45.944Z,95912.20
2022-10-31T18:53:54.200Z,95906.75
2022-10-31T18:56:43.956Z,95907.53
2022-10-31T19:02:18.998Z,95911.30
2022-10-31T19:05:07.843Z,95911.77
2022-10-31T19:07:57.550Z,95911.58
2022-10-31T19:13:32.219Z,95909.44
2022-10-31T19:16:21.440Z,95906.30
2022-10-31T19:21:58.174Z,95904.27
2022-10-31T19:32:59.613Z,95914.31
2022-10-31T19:41:26.708Z,95905.66
2022-10-31T19:46:59.403Z,95917.50
2022-10-31T19:52:27.879Z,95902.56
2022-10-31T19:58:04.379Z,95909.31
2022-10-31T20:03:39.698Z,95906.30
2022-10-31T20:09:13.597Z,95911.80
2022-10-31T20:14:46.161Z,95909.78
2022-10-31T20:20:23.790Z,95905.22
2022-10-31T20:25:58.926Z,95906.81
2022-10-31T20:34:23.765Z,95911.72
2022-10-31T20:37:11.936Z,95898.57
2022-10-31T20:40:00.472Z,95906.95
2022-10-31T20:45:39.404Z,95910.88
2022-10-31T20:48:27.455Z,95914.84
2022-10-31T20:54:07.672Z,95914.64
2022-10-31T20:59:54.125Z,95916.05
2022-10-31T21:05:25.692Z,95905.62
2022-10-31T21:13:55.694Z,95908.56
2022-10-31T21:16:45.669Z,95915.62
2022-10-31T21:22:25.458Z,95911.53
2022-10-31T21:28:05.691Z,95903.47
2022-10-31T21:30:54.216Z,95909.28
2022-10-31T21:36:28.186Z,95911.32
2022-10-31T21:39:38.487Z,95903.84
2022-10-31T21:45:24.976Z,95897.58
2022-10-31T21:51:13.678Z,95890.91
2022-10-31T21:54:19.935Z,95882.85
2022-10-31T21:57:08.031Z,95889.98
2022-10-31T22:02:46.492Z,95897.83
2022-10-31T22:08:26.474Z,95903.39
2022-10-31T22:14:02.081Z,95897.49
2022-10-31T22:16:51.038Z,95895.34
2022-10-31T22:25:12.989Z,95891.58
2022-10-31T22:28:04.911Z,95895.34
2022-10-31T22:33:37.499Z,95897.84
2022-10-31T22:36:27.111Z,95894.33
2022-10-31T22:42:04.957Z,95899.98
2022-10-31T22:47:37.644Z,95916.98
2022-10-31T22:53:08.599Z,95909.28
2022-10-31T22:58:44.697Z,95916.20
2022-10-31T23:04:24.634Z,95911.86
2022-10-31T23:07:15.772Z,95909.62
2022-10-31T23:10:07.126Z,95912.00
2022-10-31T23:15:40.255Z,95905.19
2022-10-31T23:21:17.963Z,95897.70
2022-10-31T23:27:11.013Z,95900.64
2022-10-31T23:30:02.757Z,95900.17
2022-10-31T23:35:32.933Z,95903.45
2022-10-31T23:41:04.563Z,95890.62
2022-10-31T23:46:39.808Z,95896.30
2022-10-31T23:52:16.451Z,95901.25
2022-10-31T23:58:07.551Z,95894.31
